Latest Weather Observations for Perisher Valley

IDN60801

Issued at 4:05 pm EST Tuesday 29 July 2014 (issued every 30 minutes, with the page automatically refreshed every 10 minutes)

About weather observations | Map of weather stations | Latest weather observations for NSW | Other Formats
Station Details ID: 071075 Name: PERISHER VALLEY AWS Lat: -36.41 Lon: 148.41 Height: 1738.0 m
Data from the previous 72 hours. | See also: Recent months at Perisher Valley
Date/Time
EST
Temp
°C
App
Temp
°C
Dew
Point
Rel
Hum
%
Delta-T
°C
Wind Press
QNH
hPa
Press
MSL
hPa
Rain
since 9 am
mm
Dir
 
Spd
km/h
Gust
km/h
Spd
kts
Gust
kts
29/04:00pm 1.4 -8.9 -1.0 84 1.0 W 43 82 23 44 - - 0.0
29/03:30pm 1.6 -9.3 -1.3 81 1.2 W 46 74 25 40 - - 0.0
29/03:00pm 1.8 -8.2 -1.8 77 1.4 W 41 74 22 40 - - 0.0
29/02:30pm 1.6 -8.4 -1.6 79 1.3 W 41 72 22 39 - - 0.0
29/02:00pm 2.1 -7.6 -2.0 74 1.6 W 39 74 21 40 - - 0.0
29/01:30pm 2.1 -7.6 -2.2 73 1.7 W 39 80 21 43 - - 0.0
29/01:00pm 2.2 -6.8 -3.1 68 2.0 W 35 65 19 35 - - 0.0
29/12:30pm 2.5 -3.0 -1.8 73 1.7 W 17 56 9 30 - - 0.0
29/12:00pm 2.3 -5.3 -1.8 74 1.6 W 28 56 15 30 - - 0.0
29/11:30am 2.3 -4.0 -1.3 77 1.4 W 22 59 12 32 - - 0.0
29/11:00am 2.1 -5.3 -1.0 80 1.3 W 28 52 15 28 - - 0.0
29/10:30am 1.7 -6.7 -0.7 84 1.0 W 33 56 18 30 - - 0.0
29/10:00am 2.3 -2.6 -0.4 82 1.1 W 15 46 8 25 - - 0.0
29/09:30am 2.3 -2.6 -0.6 81 1.2 W 15 41 8 22 - - 0.0
29/09:00am 3.1 -1.0 -0.5 77 1.5 W 11 32 6 17 - - 0.0
29/08:30am 3.2 -1.0 -0.8 75 1.6 W 11 46 6 25 - - 0.0
29/08:00am 2.8 -1.8 -1.0 76 1.6 W 13 35 7 19 - - 0.0
29/07:30am 2.1 -3.8 -1.0 80 1.3 W 20 50 11 27 - - 0.0
29/07:00am 2.0 -5.4 -0.9 81 1.2 W 28 54 15 29 - - 0.0
29/06:30am 1.9 -5.5 -0.8 82 1.1 W 28 52 15 28 - - 0.0
29/06:00am 1.8 -6.4 -0.9 82 1.1 W 32 65 17 35 - - 0.0
29/05:30am 1.9 -6.0 -1.2 80 1.2 W 30 57 16 31 - - 0.0
29/05:00am 2.1 -5.4 -1.3 78 1.4 W 28 54 15 29 - - 0.0
29/04:30am 2.2 -5.7 -1.4 77 1.4 W 30 61 16 33 - - 0.0
29/04:00am 2.3 -6.2 -1.7 75 1.6 W 33 65 18 35 - - 0.0
29/03:30am 2.3 -6.0 -1.7 75 1.6 W 32 56 17 30 - - 0.0
29/03:00am 2.4 -6.1 -1.6 75 1.6 W 33 67 18 36 - - 0.0
29/02:30am 2.5 -7.1 -1.5 75 1.6 W 39 67 21 36 - - 0.0
29/02:00am 2.4 -5.9 -1.4 76 1.5 W 32 59 17 32 - - 0.0
29/01:30am 1.9 -6.5 -1.3 79 1.3 W 33 63 18 34 - - 0.0
29/01:00am 2.4 -5.5 -1.2 77 1.5 W 30 56 16 30 - - 0.0
29/12:30am 2.2 -5.0 -1.8 75 1.6 W 26 48 14 26 - - 0.0
29/12:00am 2.0 -5.5 -1.6 77 1.4 W 28 52 15 28 - - 0.0
 
Date/Time
EST
Temp
°C
App
Temp
°C
Dew
Point
Rel
Hum
%
Delta-T
°C
Wind Press
QNH
hPa
Press
MSL
hPa
Rain
since 9 am
mm
Dir
 
Spd
km/h
Gust
km/h
Spd
kts
Gust
kts
28/11:30pm 1.9 -6.3 -1.0 81 1.2 W 32 56 17 30 - - 0.0
28/11:00pm 1.8 -7.7 -0.9 82 1.1 W 39 59 21 32 - - 0.0
28/10:30pm 1.8 -4.9 -1.1 81 1.2 W 24 44 13 24 - - 0.0
28/10:00pm 1.6 -4.7 -1.0 83 1.0 W 22 44 12 24 - - 0.0
28/09:30pm 1.3 -4.1 -1.3 83 1.0 W 17 43 9 23 - - 0.0
28/09:00pm 1.0 -4.4 -1.1 86 0.8 W 17 46 9 25 - - 0.0
28/08:30pm 1.0 -4.7 -0.9 87 0.8 W 19 46 10 25 - - 0.0
28/08:00pm 0.8 -6.3 -1.1 87 0.8 W 26 54 14 29 - - 0.0
28/07:30pm 1.1 -5.3 -1.6 82 1.1 W 22 41 12 22 - - 0.0
28/07:00pm 1.1 -6.8 -1.5 83 1.0 W 30 48 16 26 - - 0.0
28/06:30pm 0.9 -7.0 -1.3 85 0.9 W 30 52 16 28 - - 0.0
28/06:00pm 0.8 -6.3 -1.3 86 0.9 W 26 48 14 26 - - 0.0
28/05:30pm 0.8 -7.1 -1.4 85 0.9 W 30 54 16 29 - - 0.0
28/05:00pm 0.8 -7.1 -1.4 85 0.9 W 30 50 16 27 - - 0.0
28/04:30pm 0.9 -6.6 -1.5 84 1.0 W 28 59 15 32 - - 0.0
28/04:00pm 1.0 -8.2 -1.7 82 1.1 W 37 59 20 32 - - 0.0
28/03:30pm 1.2 -7.3 -1.5 82 1.1 W 33 61 18 33 - - 0.0
28/03:00pm 1.0 -7.5 -1.6 83 1.1 W 33 56 18 30 - - 0.0
28/02:30pm 1.1 -8.1 -1.0 86 0.8 W 37 56 20 30 - - 0.0
28/02:00pm 1.1 -6.7 -1.1 85 0.9 W 30 52 16 28 - - 0.0
28/01:30pm 0.9 -7.4 -0.5 90 0.6 W 33 56 18 30 - - 0.0
28/01:00pm 0.8 -6.9 -0.3 92 0.4 W 30 54 16 29 - - 0.0
28/12:30pm 0.7 -5.1 -0.4 92 0.4 W 20 46 11 25 - - 0.0
28/12:00pm 0.7 -6.3 -0.4 92 0.4 WNW 26 46 14 25 - - 0.0
28/11:30am 1.0 -4.7 -0.8 88 0.7 W 19 44 10 24 - - 0.0
28/11:00am 1.0 -4.3 -0.8 88 0.7 W 17 41 9 22 - - 0.0
28/10:30am 1.5 -5.6 -1.4 81 1.2 W 26 48 14 26 - - 0.0
28/10:00am 1.3 -7.1 -1.3 83 1.0 W 33 50 18 27 - - 0.0
28/09:30am 1.3 -5.2 -2.1 78 1.4 W 22 48 12 26 - - 0.0
28/09:00am 0.9 -5.5 -1.8 82 1.1 W 22 48 12 26 - - 0.0
28/08:30am 0.8 -6.1 -2.4 79 1.3 W 24 46 13 25 - - 0.0
28/08:00am 0.4 -6.5 -2.8 79 1.2 W 24 46 13 25 - - 0.0
28/07:30am -0.1 -6.6 -2.3 85 0.8 W 22 43 12 23 - - 0.0
28/07:00am -0.1 -6.1 -1.8 88 0.7 W 20 35 11 19 - - 0.0
28/06:30am -0.1 -7.3 -2.0 87 0.7 W 26 46 14 25 - - 0.0
28/06:00am -0.2 -6.3 -2.3 86 0.8 W 20 35 11 19 - - 0.0
28/05:30am -0.3 -6.3 -2.7 84 0.9 W 19 35 10 19 - - 0.0
28/05:00am -0.4 -7.7 -2.9 83 0.9 W 26 44 14 24 - - 0.0
28/04:30am -0.4 -7.0 -3.3 81 1.1 W 22 46 12 25 - - 0.0
28/04:00am -0.4 -7.4 -3.3 81 1.1 W 24 57 13 31 - - 0.0
28/03:30am -0.6 -6.6 -3.4 81 1.0 W 19 35 10 19 - - 0.0
28/03:00am -0.4 -6.7 -3.8 78 1.2 W 20 37 11 20 - - 0.0
28/02:30am -0.5 -6.7 -3.5 80 1.1 W 20 39 11 21 - - 0.0
28/02:00am -1.0 -9.1 -3.5 83 0.9 W 30 57 16 31 - - 0.0
28/01:30am -1.3 -7.9 -3.0 88 0.6 WSW 22 44 12 24 - - 0.0
28/01:00am -1.1 -8.2 -4.1 80 1.0 W 24 43 13 23 - - 0.0
28/12:30am -0.6 -7.4 -5.2 71 1.6 W 22 41 12 22 - - 0.0
28/12:00am -0.5 -6.3 -4.9 72 1.5 W 17 30 9 16 - - 0.0
 
Date/Time
EST
Temp
°C
App
Temp
°C
Dew
Point
Rel
Hum
%
Delta-T
°C
Wind Press
QNH
hPa
Press
MSL
hPa
Rain
since 9 am
mm
Dir
 
Spd
km/h
Gust
km/h
Spd
kts
Gust
kts
27/11:30pm -0.9 -7.1 -3.4 83 0.9 W 20 37 11 20 - - 0.0
27/11:00pm -0.6 -7.6 -3.3 82 1.0 W 24 39 13 21 - - 0.0
27/10:30pm -0.4 -7.3 -2.4 86 0.7 W 24 39 13 21 - - 0.0
27/10:00pm 1.4 -7.5 -6.9 54 3.0 W 32 50 17 27 - - 0.0
27/09:30pm 2.8 -5.9 -9.1 41 4.1 W 30 50 16 27 - - 0.0
27/09:00pm 2.4 -8.5 -6.7 51 3.3 W 43 61 23 33 - - 0.0
27/08:30pm 2.9 -6.0 -7.0 48 3.6 W 32 54 17 29 - - 0.0
27/08:00pm 1.1 -6.3 -3.7 70 1.9 W 26 48 14 26 - - 0.0
27/07:30pm 1.6 -6.3 -4.9 62 2.5 W 28 44 15 24 - - 0.0
27/07:00pm 2.9 -2.8 -7.0 48 3.6 W 15 30 8 16 - - 0.0
27/06:30pm 3.9 -2.8 -10.5 34 4.9 W 19 28 10 15 - - 0.0
27/06:00pm 3.6 -3.7 -10.4 35 4.8 W 22 35 12 19 - - 0.0
27/05:30pm 2.0 -5.5 -4.9 60 2.6 W 26 37 14 20 - - 0.0
27/05:00pm 1.0 -4.6 -2.6 77 1.4 W 17 39 9 21 - - 0.0
27/04:30pm 1.2 -2.5 -2.5 76 1.5 W 7 19 4 10 - - 0.0
27/04:00pm 0.9 -2.6 -1.5 84 1.0 S 7 19 4 10 - - 0.0
27/03:30pm 1.3 -2.1 -2.1 78 1.4 S 6 20 3 11 - - 0.0
27/03:00pm 1.7 -3.0 -1.9 77 1.4 WSW 13 35 7 19 - - 0.0
27/02:30pm 1.7 -3.0 -1.9 77 1.4 W 13 28 7 15 - - 0.0
27/02:00pm 1.8 -2.9 -1.6 78 1.4 SW 13 28 7 15 - - 0.0
27/01:30pm 1.6 -3.1 -1.6 79 1.3 SW 13 28 7 15 - - 0.0
27/01:00pm 1.5 -2.8 -1.6 80 1.2 SW 11 24 6 13 - - 0.0
27/12:30pm 1.9 -2.4 -1.5 78 1.4 WSW 11 24 6 13 - - 0.0
27/12:00pm 1.9 -2.8 -1.7 77 1.4 WSW 13 26 7 14 - - 0.0
27/11:30am 2.6 -1.8 -2.5 69 2.0 WSW 11 28 6 15 - - 0.0
27/11:00am 4.2 0.4 -5.3 50 3.5 WSW 6 17 3 9 - - 0.0
27/10:30am 3.8 0.1 -4.6 54 3.2 WSW 6 13 3 7 - - 0.0
27/10:00am 4.1 0.7 -5.6 49 3.6 WSW 4 11 2 6 - - 0.0
27/09:30am 2.7 -1.0 -4.5 59 2.7 WSW 6 20 3 11 - - 0.0
27/09:00am 1.3 -2.3 -3.7 69 1.9 WSW 6 15 3 8 - - 1.4
27/08:30am 0.8 -2.5 -4.2 69 1.9 ESE 4 7 2 4 - - 1.4
27/08:00am 0.4 -2.5 -4.2 71 1.7 WSW 2 7 1 4 - - 1.4
27/07:30am -0.6 -3.8 -3.9 78 1.2 WSW 4 15 2 8 - - 1.4
27/07:00am -1.2 -4.5 -4.0 81 1.0 WSW 4 17 2 9 - - 1.4
27/06:30am -0.8 -4.9 -3.2 84 0.9 WSW 9 22 5 12 - - 1.4
27/06:00am -0.4 -6.0 -2.8 84 0.9 WSW 17 30 9 16 - - 1.4
27/05:30am -0.2 -5.4 -2.4 85 0.8 WSW 15 26 8 14 - - 1.4
27/05:00am -0.4 -4.8 -2.1 88 0.6 WSW 11 24 6 13 - - 1.4
27/04:30am -0.2 -4.6 -2.3 86 0.8 WSW 11 24 6 13 - - 1.4
27/04:00am 0.1 -5.8 -2.1 85 0.9 WSW 19 33 10 18 - - 1.4
27/03:30am 0.1 -6.0 -2.1 85 0.9 W 20 39 11 21 - - 1.4
27/03:00am 0.5 -5.3 -1.7 85 0.9 WSW 19 41 10 22 - - 1.4
27/02:30am 0.7 -6.8 -1.4 86 0.9 W 28 44 15 24 - - 1.4
27/02:00am 0.7 -5.7 -1.7 84 1.0 WSW 22 48 12 26 - - 1.4
27/01:30am 0.7 -4.3 -1.5 85 0.9 WSW 15 32 8 17 - - 1.4
27/01:00am 0.9 -4.5 -1.0 87 0.8 WSW 17 28 9 15 - - 1.4
27/12:30am 1.0 -4.3 -0.8 88 0.7 WSW 17 37 9 20 - - 1.4
27/12:00am 1.2 -4.5 -0.6 88 0.7 W 19 33 10 18 - - 1.4
 
Date/Time
EST
Temp
°C
App
Temp
°C
Dew
Point
Rel
Hum
%
Delta-T
°C
Wind Press
QNH
hPa
Press
MSL
hPa
Rain
since 9 am
mm
Dir
 
Spd
km/h
Gust
km/h
Spd
kts
Gust
kts
26/11:30pm 1.2 -3.3 -0.4 89 0.7 WSW 13 24 7 13 - - 1.4
26/11:00pm 1.1 -3.1 -0.7 88 0.7 WSW 11 22 6 12 - - 1.4
26/10:30pm 0.9 -4.3 -0.2 92 0.4 W 17 30 9 16 - - 1.4
26/10:00pm 1.0 -2.7 -0.3 91 0.5 WSW 9 20 5 11 - - 1.2
26/09:30pm 0.8 -3.7 -0.1 94 0.4 W 13 26 7 14 - - 1.2
26/09:00pm 0.7 -3.1 -0.4 92 0.4 W 9 20 5 11 - - 1.0
26/08:30pm 0.9 -3.2 -0.1 93 0.4 WSW 11 24 6 13 - - 1.0
26/08:00pm 0.6 -5.2 -0.4 93 0.4 WSW 20 37 11 20 - - 1.0
26/07:30pm 0.7 -4.5 0.0 95 0.3 W 17 28 9 15 - - 1.0
26/07:00pm 0.7 -3.5 -0.7 90 0.6 WSW 11 26 6 14 - - 1.0
26/06:30pm 0.8 -4.5 -0.5 91 0.5 W 17 28 9 15 - - 1.0
26/06:00pm 0.8 -4.9 -0.5 91 0.5 W 19 30 10 16 - - 1.0
26/05:30pm 0.6 -4.3 -0.3 94 0.4 W 15 26 8 14 - - 1.0
26/05:00pm 0.7 -2.5 -0.7 90 0.6 WSW 6 19 3 10 - - 1.0
26/04:30pm 0.8 -2.4 -0.8 89 0.6 WSW 6 17 3 9 - - 1.0

Other Formats:

Comma delimited format used in spreadsheet applications
http://www.bom.gov.au/fwo/IDN60801/IDN60801.94915.axf

JavaScript Object Notation format (JSON) in row-major order
http://www.bom.gov.au/fwo/IDN60801/IDN60801.94915.json